createdAt,value
2017-03-26T07:57:30.796Z,2.82
2017-03-26T07:58:28.428Z,3.04
2017-03-26T07:59:26.011Z,2.86
2017-03-26T08:00:23.613Z,2.68
2017-03-26T08:01:21.997Z,3.00
2017-03-26T08:02:19.545Z,2.26
2017-03-26T08:03:17.245Z,2.50
2017-03-26T08:04:14.868Z,2.94
2017-03-26T08:05:12.496Z,3.86
2017-03-26T08:06:10.145Z,3.04
2017-03-26T08:07:07.850Z,3.24
2017-03-26T08:08:05.489Z,3.30
2017-03-26T08:09:03.083Z,2.96
2017-03-26T08:10:01.405Z,3.28
2017-03-26T08:10:59.039Z,3.36
2017-03-26T08:11:56.673Z,2.72
2017-03-26T08:12:54.255Z,3.20
2017-03-26T08:13:52.085Z,2.82
2017-03-26T08:14:49.940Z,2.88
2017-03-26T08:15:47.753Z,3.46
2017-03-26T08:16:45.799Z,2.32
2017-03-26T08:17:43.861Z,3.44
2017-03-26T08:18:41.926Z,2.68
2017-03-26T08:19:39.528Z,2.36
2017-03-26T08:20:37.307Z,2.82
2017-03-26T08:21:35.060Z,2.68
2017-03-26T08:22:32.692Z,3.50
2017-03-26T08:23:30.325Z,2.64
2017-03-26T08:24:27.984Z,2.42
2017-03-26T08:25:25.580Z,3.56
2017-03-26T08:26:23.152Z,2.60
2017-03-26T08:27:20.754Z,2.96
2017-03-26T08:28:18.420Z,2.92
2017-03-26T08:29:15.982Z,2.74
2017-03-26T08:30:13.580Z,3.02
2017-03-26T08:31:11.129Z,3.08
2017-03-26T08:32:08.924Z,3.46
2017-03-26T08:33:06.536Z,3.46
2017-03-26T08:34:04.189Z,3.82
2017-03-26T08:35:01.856Z,3.18
2017-03-26T08:35:59.501Z,3.28
2017-03-26T08:36:57.042Z,3.40
2017-03-26T08:37:55.445Z,3.00
2017-03-26T08:38:52.982Z,3.10
2017-03-26T08:39:50.574Z,3.34
2017-03-26T08:40:48.167Z,2.92
2017-03-26T08:41:45.725Z,3.38
2017-03-26T08:42:43.426Z,3.04
2017-03-26T08:43:41.037Z,2.88
2017-03-26T08:44:38.665Z,3.38
2017-03-26T08:45:37.480Z,3.18
2017-03-26T08:46:35.091Z,3.78
2017-03-26T08:47:33.460Z,3.70
2017-03-26T08:48:31.111Z,2.70
2017-03-26T08:49:28.674Z,3.54
2017-03-26T08:50:26.405Z,3.22
2017-03-26T08:51:23.959Z,3.54
2017-03-26T08:52:22.331Z,3.42
2017-03-26T08:53:19.963Z,3.24
2017-03-26T08:54:17.530Z,3.56
2017-03-26T08:55:15.321Z,3.94
2017-03-26T08:56:12.936Z,3.74
2017-03-26T08:57:11.241Z,3.96
2017-03-26T08:58:08.851Z,4.26
2017-03-26T08:59:06.409Z,3.80
2017-03-26T09:00:03.948Z,3.60
2017-03-26T09:01:01.539Z,4.74
2017-03-26T09:01:59.133Z,3.50
2017-03-26T09:02:56.695Z,3.64
2017-03-26T09:03:54.248Z,4.22
2017-03-26T09:04:51.902Z,3.70
2017-03-26T09:05:49.450Z,2.74
2017-03-26T09:06:47.037Z,3.16
2017-03-26T09:07:44.694Z,3.14
2017-03-26T09:08:42.406Z,3.18
2017-03-26T09:09:39.949Z,4.24
2017-03-26T09:10:38.331Z,2.54
2017-03-26T09:11:35.979Z,4.20
2017-03-26T09:12:33.548Z,3.28
2017-03-26T09:13:31.169Z,3.50
2017-03-26T09:14:28.795Z,3.68
2017-03-26T09:15:26.588Z,3.20
2017-03-26T09:16:24.136Z,3.86
2017-03-26T09:17:22.544Z,3.76
2017-03-26T09:18:20.336Z,3.92
2017-03-26T09:19:18.065Z,3.04
2017-03-26T09:20:15.599Z,3.84
2017-03-26T09:21:13.233Z,4.14
2017-03-26T09:22:10.904Z,3.70
2017-03-26T09:23:08.556Z,4.84
2017-03-26T09:24:06.197Z,3.80
2017-03-26T09:25:03.793Z,3.62
2017-03-26T09:26:01.964Z,4.36
2017-03-26T09:26:59.609Z,3.88
2017-03-26T09:27:57.201Z,4.18
2017-03-26T09:28:54.811Z,4.26
2017-03-26T09:29:52.433Z,4.08
2017-03-26T09:30:49.965Z,3.28
2017-03-26T09:31:47.568Z,3.76
2017-03-26T09:32:45.129Z,3.38
2017-03-26T09:33:42.661Z,3.98
2017-03-26T09:34:40.209Z,4.74
2017-03-26T09:35:37.803Z,3.30
2017-03-26T09:36:35.421Z,4.06
2017-03-26T09:37:33.810Z,3.58
2017-03-26T09:38:31.485Z,2.92
2017-03-26T09:39:29.206Z,4.14
2017-03-26T09:40:26.766Z,3.38
2017-03-26T09:41:24.472Z,3.88
2017-03-26T09:42:22.084Z,3.78
2017-03-26T09:43:19.720Z,3.88
2017-03-26T09:44:17.260Z,3.66
2017-03-26T09:45:15.615Z,3.46
2017-03-26T09:46:13.268Z,3.16
2017-03-26T09:47:11.702Z,3.44
2017-03-26T09:48:09.437Z,2.98
2017-03-26T09:49:07.116Z,3.54
2017-03-26T09:50:04.649Z,3.20
2017-03-26T09:51:02.253Z,3.54
2017-03-26T09:52:00.005Z,3.42
2017-03-26T09:52:57.695Z,3.42
2017-03-26T09:53:55.304Z,2.84
2017-03-26T09:54:53.702Z,4.06
2017-03-26T09:55:51.582Z,3.76
2017-03-26T09:56:49.345Z,3.88
2017-03-26T09:57:46.949Z,4.04
2017-03-26T09:58:44.639Z,4.60
2017-03-26T09:59:42.500Z,3.86
2017-03-26T10:00:40.131Z,4.14
2017-03-26T10:01:37.796Z,3.68
2017-03-26T10:02:35.476Z,3.96
2017-03-26T10:03:33.070Z,3.48
2017-03-26T10:04:30.752Z,3.96
2017-03-26T10:05:28.351Z,4.42
2017-03-26T10:06:26.000Z,3.48
2017-03-26T10:07:23.556Z,4.54
2017-03-26T10:08:22.215Z,3.50
2017-03-26T10:09:19.820Z,4.04
2017-03-26T10:10:17.471Z,3.68
2017-03-26T10:11:15.088Z,4.12
2017-03-26T10:12:13.452Z,3.74
2017-03-26T10:13:11.846Z,4.66
2017-03-26T10:14:09.652Z,3.64
2017-03-26T10:15:07.288Z,4.06
2017-03-26T10:16:05.019Z,4.38
2017-03-26T10:17:02.631Z,3.96
2017-03-26T10:18:00.304Z,4.32
2017-03-26T10:18:57.841Z,4.00
2017-03-26T10:19:55.485Z,4.42
2017-03-26T10:20:53.129Z,3.66
2017-03-26T10:21:51.544Z,4.60
2017-03-26T10:22:49.091Z,4.30
2017-03-26T10:23:46.639Z,4.40
2017-03-26T10:24:44.256Z,4.66
2017-03-26T10:25:41.799Z,4.88
2017-03-26T10:26:39.353Z,4.28
2017-03-26T10:27:37.027Z,4.34
2017-03-26T10:28:34.956Z,3.80
2017-03-26T10:29:33.702Z,5.06
2017-03-26T10:30:31.272Z,6.62
2017-03-26T10:31:28.864Z,5.80
2017-03-26T10:32:26.407Z,5.64
2017-03-26T10:33:24.074Z,6.12
2017-03-26T10:34:21.625Z,6.22
2017-03-26T10:35:19.211Z,4.82
2017-03-26T10:36:16.812Z,5.44
2017-03-26T10:37:14.444Z,6.94
2017-03-26T10:38:12.045Z,6.58
2017-03-26T10:39:09.606Z,6.92
2017-03-26T10:40:07.213Z,7.84
2017-03-26T10:41:04.841Z,7.76
2017-03-26T10:42:02.419Z,6.36
2017-03-26T10:43:00.044Z,6.42
2017-03-26T10:43:57.601Z,6.28
2017-03-26T10:44:55.277Z,6.44
2017-03-26T10:45:52.845Z,7.22
2017-03-26T10:46:50.452Z,5.38
2017-03-26T10:47:48.092Z,7.72
2017-03-26T10:48:46.513Z,7.20
2017-03-26T10:49:44.060Z,6.04
2017-03-26T10:50:41.648Z,5.12
2017-03-26T10:51:39.209Z,5.60
2017-03-26T10:52:36.768Z,5.78
2017-03-26T10:53:34.516Z,6.56
2017-03-26T10:54:32.097Z,5.80
2017-03-26T10:55:29.716Z,6.62
2017-03-26T10:56:27.293Z,5.64
2017-03-26T10:57:24.857Z,6.16
2017-03-26T10:58:22.405Z,5.72
2017-03-26T10:59:20.017Z,5.18
2017-03-26T11:00:18.402Z,6.04
2017-03-26T11:01:15.980Z,5.52
2017-03-26T11:02:13.614Z,5.72
2017-03-26T11:03:11.314Z,5.44
2017-03-26T11:04:08.924Z,5.86
2017-03-26T11:05:06.555Z,6.40
2017-03-26T11:06:04.157Z,4.92
2017-03-26T11:07:01.761Z,5.66
2017-03-26T11:07:59.348Z,5.36
2017-03-26T11:08:56.940Z,5.52
2017-03-26T11:09:54.487Z,5.40
2017-03-26T11:10:52.039Z,5.70
2017-03-26T11:11:49.589Z,5.54
2017-03-26T11:12:47.166Z,5.86
2017-03-26T11:13:44.764Z,6.06
2017-03-26T11:14:42.331Z,5.62
2017-03-26T11:15:39.905Z,5.92
2017-03-26T11:16:37.549Z,6.92
2017-03-26T11:17:35.303Z,5.98
2017-03-26T11:18:33.089Z,6.62
2017-03-26T11:19:30.885Z,6.00
2017-03-26T11:20:28.469Z,6.06
2017-03-26T11:21:26.081Z,5.80
2017-03-26T11:22:23.701Z,6.90
2017-03-26T11:23:21.453Z,6.44
2017-03-26T11:24:19.066Z,6.20
2017-03-26T11:25:17.612Z,6.02
2017-03-26T11:26:15.181Z,7.62
2017-03-26T11:27:12.737Z,6.02
2017-03-26T11:28:10.316Z,6.74
2017-03-26T11:29:08.601Z,6.80
2017-03-26T11:30:06.360Z,6.42
2017-03-26T11:31:04.095Z,6.72
2017-03-26T11:32:01.774Z,6.24
2017-03-26T11:32:59.356Z,6.74
2017-03-26T11:33:57.721Z,6.78
2017-03-26T11:34:55.385Z,7.26
2017-03-26T11:35:52.945Z,7.50
2017-03-26T11:36:50.568Z,7.70
2017-03-26T11:37:48.130Z,6.70
2017-03-26T11:38:45.804Z,7.22
2017-03-26T11:39:43.369Z,6.52
2017-03-26T11:40:41.001Z,6.64
2017-03-26T11:41:38.671Z,5.96
2017-03-26T11:42:36.339Z,7.02
2017-03-26T11:43:33.961Z,6.54
2017-03-26T11:44:31.525Z,7.64
2017-03-26T11:45:29.138Z,6.32
2017-03-26T11:46:26.813Z,7.16
2017-03-26T11:47:24.364Z,6.82
2017-03-26T11:48:21.994Z,6.36
2017-03-26T11:49:19.617Z,5.94
2017-03-26T11:50:17.301Z,6.64
2017-03-26T11:51:14.958Z,6.56
2017-03-26T11:52:12.593Z,6.52
2017-03-26T11:53:10.260Z,5.66
2017-03-26T11:54:08.172Z,5.64
2017-03-26T11:55:05.720Z,6.00
2017-03-26T11:56:03.382Z,5.54
2017-03-26T11:57:01.768Z,6.26
2017-03-26T11:57:59.352Z,7.06
2017-03-26T11:58:56.960Z,7.08
2017-03-26T11:59:54.552Z,6.90
2017-03-26T12:00:52.214Z,7.80
2017-03-26T12:01:49.897Z,7.00
2017-03-26T12:02:47.485Z,6.14
2017-03-26T12:03:45.138Z,7.30
2017-03-26T12:04:42.734Z,8.58
2017-03-26T12:05:41.185Z,8.50
2017-03-26T12:06:38.803Z,9.28
2017-03-26T12:07:36.497Z,8.38
2017-03-26T12:08:34.102Z,8.22
2017-03-26T12:09:31.684Z,8.20
2017-03-26T12:10:29.307Z,8.28
2017-03-26T12:11:26.889Z,8.20
2017-03-26T12:12:24.528Z,8.78
2017-03-26T12:13:22.364Z,8.62
2017-03-26T12:14:19.951Z,8.50
2017-03-26T12:15:18.254Z,7.58
2017-03-26T12:16:15.844Z,7.84
2017-03-26T12:17:13.513Z,7.78
2017-03-26T12:18:11.057Z,7.46
2017-03-26T12:19:09.929Z,7.08
2017-03-26T12:20:08.260Z,7.38
2017-03-26T12:21:05.835Z,7.54
2017-03-26T12:22:04.247Z,8.32
2017-03-26T12:23:01.881Z,7.64
2017-03-26T12:23:59.420Z,8.70
2017-03-26T12:24:57.057Z,8.34
2017-03-26T12:25:54.716Z,7.32
2017-03-26T12:26:54.305Z,7.80
2017-03-26T12:27:51.945Z,8.58
2017-03-26T12:28:50.576Z,7.04
2017-03-26T12:29:48.141Z,8.74
2017-03-26T12:30:45.727Z,8.36
2017-03-26T12:31:46.026Z,7.90
2017-03-26T12:32:44.729Z,7.98
2017-03-26T12:33:42.656Z,8.16
2017-03-26T12:34:40.250Z,7.98
2017-03-26T12:35:37.888Z,7.38
2017-03-26T12:36:35.527Z,8.22
2017-03-26T12:37:33.222Z,7.32
2017-03-26T12:38:31.033Z,8.02
2017-03-26T12:39:29.428Z,7.18
2017-03-26T12:40:27.014Z,7.96
2017-03-26T12:41:24.580Z,6.42
2017-03-26T12:42:22.124Z,8.02
2017-03-26T12:43:19.813Z,6.80
2017-03-26T12:44:18.242Z,7.76
2017-03-26T12:45:15.857Z,7.42
2017-03-26T12:46:13.527Z,8.26
2017-03-26T12:47:11.121Z,7.84
2017-03-26T12:48:09.486Z,7.50
2017-03-26T12:49:07.290Z,7.04
2017-03-26T12:50:04.862Z,7.86
2017-03-26T12:51:02.404Z,7.22
2017-03-26T12:52:00.236Z,7.48
2017-03-26T12:52:57.890Z,7.66
2017-03-26T12:53:55.516Z,6.90
2017-03-26T12:54:53.169Z,5.72
2017-03-26T12:55:50.708Z,7.12
2017-03-26T12:56:48.360Z,6.50
2017-03-26T12:57:45.941Z,6.44
2017-03-26T12:58:43.751Z,6.10
2017-03-26T12:59:41.335Z,7.40
2017-03-26T13:00:38.980Z,7.06
2017-03-26T13:01:36.613Z,5.92
2017-03-26T13:02:34.168Z,6.76
2017-03-26T13:03:31.778Z,6.52
2017-03-26T13:04:29.354Z,7.00
2017-03-26T13:05:27.058Z,7.42
2017-03-26T13:06:24.636Z,7.80
2017-03-26T13:07:22.554Z,7.60
2017-03-26T13:08:20.180Z,11.72
2017-03-26T13:09:17.868Z,10.42
2017-03-26T13:10:15.410Z,11.54
2017-03-26T13:11:13.144Z,10.36
2017-03-26T13:12:10.819Z,10.48
2017-03-26T13:13:08.591Z,9.96
2017-03-26T13:14:06.234Z,11.16
2017-03-26T13:15:04.092Z,10.64
2017-03-26T13:16:01.649Z,10.90
2017-03-26T13:16:59.205Z,11.38
2017-03-26T13:17:56.853Z,10.36
2017-03-26T13:18:54.516Z,9.82
2017-03-26T13:19:52.088Z,10.48
2017-03-26T13:20:50.453Z,10.28
2017-03-26T13:21:48.015Z,11.02
2017-03-26T13:22:45.641Z,11.90
2017-03-26T13:23:43.274Z,11.62
2017-03-26T13:24:40.908Z,10.26
2017-03-26T13:25:38.524Z,10.40
2017-03-26T13:26:36.101Z,11.14
2017-03-26T13:27:33.717Z,10.24
2017-03-26T13:28:31.383Z,10.70
2017-03-26T13:29:29.055Z,9.48
2017-03-26T13:30:26.688Z,9.82
2017-03-26T13:31:24.245Z,10.14
2017-03-26T13:32:28.696Z,9.52
2017-03-26T13:33:26.397Z,9.52
2017-03-26T13:34:24.716Z,8.74
2017-03-26T13:35:22.304Z,8.98
2017-03-26T13:36:20.688Z,7.62
2017-03-26T13:37:18.369Z,7.98
2017-03-26T13:38:16.052Z,8.30
2017-03-26T13:39:13.639Z,8.78
2017-03-26T13:40:11.250Z,8.40
2017-03-26T13:41:08.862Z,7.80
2017-03-26T13:42:06.440Z,9.04
2017-03-26T13:43:04.052Z,7.50
2017-03-26T13:44:01.714Z,7.26
2017-03-26T13:44:59.401Z,7.68
2017-03-26T13:45:57.052Z,8.22
2017-03-26T13:46:54.649Z,7.42
2017-03-26T13:47:52.227Z,7.82
2017-03-26T13:48:49.789Z,8.26
2017-03-26T13:49:47.422Z,8.26
2017-03-26T13:50:45.036Z,8.06
2017-03-26T13:51:42.635Z,7.86
2017-03-26T13:52:40.337Z,8.24
2017-03-26T13:53:37.971Z,8.08
2017-03-26T13:54:35.592Z,9.38
2017-03-26T13:55:33.213Z,8.52
2017-03-26T13:56:30.955Z,8.22
2017-03-26T13:57:28.513Z,8.32
2017-03-26T13:58:26.278Z,6.68
2017-03-26T13:59:24.040Z,7.80
2017-03-26T14:00:21.599Z,7.20
2017-03-26T14:01:19.180Z,8.34
2017-03-26T14:02:16.988Z,8.18
2017-03-26T14:03:14.673Z,7.60
2017-03-26T14:04:12.538Z,6.74
2017-03-26T14:05:10.153Z,6.86
2017-03-26T14:06:07.768Z,7.56
2017-03-26T14:07:05.437Z,7.08
2017-03-26T14:08:03.100Z,6.44
2017-03-26T14:09:01.034Z,6.80
2017-03-26T14:09:58.685Z,7.78
2017-03-26T14:10:56.244Z,6.20
2017-03-26T14:11:53.852Z,6.56
2017-03-26T14:12:51.480Z,5.64
2017-03-26T14:13:49.094Z,7.02
2017-03-26T14:14:47.077Z,6.54
2017-03-26T14:15:44.664Z,6.08
2017-03-26T14:16:42.328Z,6.30
2017-03-26T14:17:39.921Z,6.86
2017-03-26T14:18:37.519Z,6.36
2017-03-26T14:19:35.096Z,5.86
2017-03-26T14:20:32.670Z,5.88
2017-03-26T14:21:30.270Z,6.68
2017-03-26T14:22:27.995Z,6.70
2017-03-26T14:23:25.548Z,6.06
2017-03-26T14:24:23.601Z,6.16
2017-03-26T14:25:21.164Z,5.76
2017-03-26T14:26:18.763Z,6.32
2017-03-26T14:27:16.353Z,5.16
2017-03-26T14:28:14.097Z,5.04
2017-03-26T14:29:11.781Z,6.64
2017-03-26T14:30:09.517Z,5.90
2017-03-26T14:31:07.176Z,5.66
2017-03-26T14:32:04.776Z,5.68
2017-03-26T14:33:03.101Z,5.66
2017-03-26T14:34:00.692Z,5.08
2017-03-26T14:34:59.010Z,6.06
2017-03-26T14:35:56.645Z,5.70
2017-03-26T14:36:54.258Z,5.56
2017-03-26T14:37:52.053Z,5.70
2017-03-26T14:38:49.716Z,5.34
2017-03-26T14:39:47.338Z,5.06
2017-03-26T14:40:44.968Z,5.42
2017-03-26T14:41:42.849Z,4.62
2017-03-26T14:42:40.492Z,5.16
2017-03-26T14:43:38.129Z,5.12
2017-03-26T14:44:36.479Z,4.68
2017-03-26T14:45:34.145Z,5.10
2017-03-26T14:46:31.711Z,4.40
2017-03-26T14:47:29.400Z,4.70
2017-03-26T14:48:26.982Z,4.98
2017-03-26T14:49:25.469Z,6.38
2017-03-26T14:50:23.138Z,5.72
2017-03-26T14:51:20.844Z,5.04
2017-03-26T14:52:18.463Z,3.68
2017-03-26T14:53:16.063Z,4.36
2017-03-26T14:54:13.630Z,3.86
2017-03-26T14:55:11.261Z,4.86
2017-03-26T14:56:08.836Z,4.46
2017-03-26T14:57:06.482Z,4.68
2017-03-26T14:58:04.147Z,4.80
2017-03-26T14:59:01.825Z,4.42
2017-03-26T14:59:59.560Z,4.60
2017-03-26T15:00:57.273Z,4.70
2017-03-26T15:01:54.991Z,4.52
2017-03-26T15:02:52.526Z,4.56
2017-03-26T15:03:50.178Z,5.00
2017-03-26T15:04:47.935Z,4.10
2017-03-26T15:05:45.506Z,4.90
2017-03-26T15:06:43.093Z,4.46
2017-03-26T15:07:40.690Z,5.06
2017-03-26T15:08:38.296Z,4.58
2017-03-26T15:09:35.848Z,4.40
2017-03-26T15:10:34.202Z,5.18
2017-03-26T15:11:32.606Z,4.56
2017-03-26T15:12:30.147Z,3.90
2017-03-26T15:13:27.801Z,4.74
2017-03-26T15:14:26.583Z,3.80
2017-03-26T15:15:24.192Z,3.78
2017-03-26T15:16:21.926Z,4.02
2017-03-26T15:17:19.532Z,4.48
2017-03-26T15:18:17.294Z,4.32
2017-03-26T15:19:15.067Z,3.74
2017-03-26T15:20:12.622Z,3.84
2017-03-26T15:21:10.177Z,4.02
2017-03-26T15:22:07.909Z,4.16
2017-03-26T15:23:06.033Z,3.62
2017-03-26T15:24:03.652Z,4.02
2017-03-26T15:25:01.202Z,4.30
2017-03-26T15:25:58.765Z,3.82
2017-03-26T15:26:56.387Z,4.04
2017-03-26T15:27:55.969Z,3.68
2017-03-26T15:28:53.567Z,4.24
2017-03-26T15:29:51.973Z,4.68
2017-03-26T15:30:49.603Z,3.76
2017-03-26T15:31:49.492Z,3.74
2017-03-26T15:32:48.149Z,3.62
2017-03-26T15:33:45.879Z,4.48
2017-03-26T15:34:43.502Z,3.88
2017-03-26T15:35:41.054Z,3.42
2017-03-26T15:36:38.824Z,3.72
2017-03-26T15:37:36.444Z,3.94
2017-03-26T15:38:34.326Z,3.64
2017-03-26T15:39:32.793Z,3.30
2017-03-26T15:40:30.575Z,3.94
2017-03-26T15:41:28.185Z,3.46
2017-03-26T15:42:25.712Z,3.38
2017-03-26T15:43:24.853Z,3.96
2017-03-26T15:44:22.410Z,2.78
2017-03-26T15:45:19.971Z,3.10
2017-03-26T15:46:17.920Z,3.30
2017-03-26T15:47:15.444Z,3.50
2017-03-26T15:48:12.977Z,2.98
2017-03-26T15:49:10.638Z,4.06
2017-03-26T15:50:08.247Z,3.72
2017-03-26T15:51:05.961Z,3.02
2017-03-26T15:52:03.568Z,3.62
2017-03-26T15:53:01.115Z,3.38
2017-03-26T15:53:58.672Z,3.56
2017-03-26T15:54:57.049Z,3.38
2017-03-26T15:55:54.580Z,3.42
2017-03-26T15:56:52.950Z,3.58
2017-03-26T15:57:50.611Z,4.10
2017-03-26T15:58:48.153Z,3.48
2017-03-26T15:59:45.721Z,3.14
2017-03-26T16:00:43.260Z,3.16
2017-03-26T16:01:41.580Z,3.58
2017-03-26T16:02:39.141Z,3.82
2017-03-26T16:03:36.853Z,3.76
2017-03-26T16:04:34.444Z,4.00
2017-03-26T16:05:32.038Z,3.68
2017-03-26T16:06:29.678Z,4.18
2017-03-26T16:07:27.236Z,3.44
2017-03-26T16:08:24.919Z,3.34
2017-03-26T16:09:22.520Z,4.16
2017-03-26T16:10:20.089Z,3.48
2017-03-26T16:11:18.452Z,4.20
2017-03-26T16:12:15.991Z,4.16
2017-03-26T16:13:13.551Z,3.82
2017-03-26T16:14:11.133Z,3.76
2017-03-26T16:15:08.696Z,3.32
2017-03-26T16:16:06.951Z,3.14
2017-03-26T16:17:04.571Z,3.94
2017-03-26T16:18:02.122Z,3.16
2017-03-26T16:18:59.788Z,3.22
2017-03-26T16:19:57.350Z,3.60
2017-03-26T16:20:55.065Z,3.56
2017-03-26T16:21:52.713Z,4.10
2017-03-26T16:22:50.262Z,4.64
2017-03-26T16:23:47.853Z,3.50
2017-03-26T16:24:45.484Z,3.86
2017-03-26T16:25:43.261Z,3.92
2017-03-26T16:26:40.935Z,2.90
2017-03-26T16:27:38.528Z,3.48
2017-03-26T16:28:36.078Z,4.04
2017-03-26T16:29:33.616Z,4.00
2017-03-26T16:30:31.173Z,3.32
2017-03-26T16:31:28.753Z,3.50
2017-03-26T16:32:26.477Z,3.92
2017-03-26T16:33:24.849Z,3.12
2017-03-26T16:34:22.400Z,3.26
2017-03-26T16:35:19.982Z,3.62
2017-03-26T16:36:17.629Z,2.94
2017-03-26T16:37:15.257Z,3.00
2017-03-26T16:38:12.899Z,3.14
2017-03-26T16:39:10.589Z,3.60
2017-03-26T16:40:08.153Z,2.98
2017-03-26T16:41:05.789Z,3.58
2017-03-26T16:42:03.413Z,3.30
2017-03-26T16:43:00.980Z,2.92
2017-03-26T16:43:58.604Z,2.84
2017-03-26T16:44:56.181Z,3.20
2017-03-26T16:45:53.816Z,3.50
2017-03-26T16:46:51.349Z,3.42
2017-03-26T16:47:48.897Z,4.02
2017-03-26T16:48:46.481Z,2.86
2017-03-26T16:49:44.007Z,2.80
2017-03-26T16:50:41.658Z,2.98
2017-03-26T16:51:39.341Z,3.48
2017-03-26T16:52:36.913Z,3.02
2017-03-26T16:53:34.509Z,3.50
